This is the latest recevied weather packets stored in our database for station/object WI5ARD. If no packets are shown the sender has not sent any weather packets the latest 10 day(s).
| Time | Temp. | Humidity | Pressure | Rain* | Wind** | Luminosity | Snow |
|---|---|---|---|---|---|---|---|
| 1777403120 | 29.44° C | 67% | 1018.3 hPa | 0 mm | - | 905 W/m² | - |
| 1777400419 | 29.44° C | 71% | 1018.7 hPa | 0 mm | - | 1002 W/m² | - |
| 1777399521 | 28.89° C | 70% | 1018.8 hPa | 0 mm | - | 947 W/m² | - |
| 1777398022 | 28.89° C | 71% | 1019 hPa | 0 mm | - | 1002 W/m² | - |
| 1777397121 | 28.33° C | 74% | 1019.2 hPa | 0 mm | - | 1081 W/m² | - |
| 1777395639 | 27.78° C | 72% | 1019.9 hPa | 0 mm | - | 944 W/m² | - |
| 1777393522 | 27.78° C | 74% | 1020.1 hPa | 0 mm | - | 882 W/m² | - |
| 1777392622 | 27.78° C | 75% | 1020.1 hPa | 0 mm | - | 854 W/m² | - |
| 1777391136 | 27.22° C | 76% | 1020.5 hPa | 0 mm | - | 406 W/m² | - |
| 1777390819 | 27.22° C | 76% | 1020.4 hPa | 0 mm | - | 459 W/m² | - |
| 1777390240 | 27.22° C | 76% | 1020.4 hPa | 0 mm | - | 454 W/m² | - |
| 1777389921 | 27.22° C | 76% | 1020.2 hPa | 0 mm | - | 499 W/m² | - |
| 1777389024 | 26.67° C | 79% | 1020 hPa | 0 mm | - | 684 W/m² | - |
| 1777387222 | 25.56° C | 84% | 1019.5 hPa | 0 mm | - | 640 W/m² | - |
| 1777383319 | 22.78° C | 96% | 1020.1 hPa | 0 mm | - | 202 W/m² | - |
| 1777381819 | 22.22° C | 96% | 1019.7 hPa | 0 mm | - | 88 W/m² | - |
| 1777378819 | 21.11° C | 96% | 1019.7 hPa | 0 mm | - | 49 W/m² | - |
| 1777378541 | 21.11° C | 96% | 1019.8 hPa | 0 mm | - | 46 W/m² | - |
| 1777377922 | 21.11° C | 96% | 1019.4 hPa | 0 mm | - | 35 W/m² | - |
| 1777377321 | 20.56° C | 96% | 1019.1 hPa | 0 mm | - | 35 W/m² | - |
| 1777376419 | 20.56° C | 96% | 1018.9 hPa | 0 mm | - | 11 W/m² | - |
| 1777376120 | 21.11° C | 96% | 1018.9 hPa | 0 mm | - | 7 W/m² | - |
| 1777374934 | 21.11° C | 96% | 1018.5 hPa | 0 mm | - | 0 W/m² | - |
| 1777370721 | 21.11° C | 96% | 1017.5 hPa | 0 mm | - | 0 W/m² | - |
| 1777368919 | 21.11° C | 95% | 1017.6 hPa | 0 mm | - | 0 W/m² | - |
* Rain latest hour (hover to see other rain measurements)
** Current wind speed in m/s (hover to see current wind gust speed)